sensor_id;sensor_type;location;lat;lon;timestamp;pressure;altitude;pressure_sealevel;temperature;humidity
25430;BME280;13360;48.152;-1.788;2023-04-04T00:00:23;102263.03;;;9.89;100.00
25430;BME280;13360;48.152;-1.788;2023-04-04T00:02:49;102252.75;;;9.85;100.00
25430;BME280;13360;48.152;-1.788;2023-04-04T00:05:15;102258.78;;;9.82;100.00
25430;BME280;13360;48.152;-1.788;2023-04-04T00:07:40;102258.44;;;9.78;100.00
25430;BME280;13360;48.152;-1.788;2023-04-04T00:10:06;102266.41;;;9.74;100.00
25430;BME280;13360;48.152;-1.788;2023-04-04T00:12:31;102261.38;;;9.71;100.00
25430;BME280;13360;48.152;-1.788;2023-04-04T00:14:57;102259.41;;;9.67;100.00
25430;BME280;13360;48.152;-1.788;2023-04-04T00:17:22;102262.09;;;9.62;100.00
25430;BME280;13360;48.152;-1.788;2023-04-04T00:19:47;102278.72;;;9.67;100.00
25430;BME280;13360;48.152;-1.788;2023-04-04T00:22:13;102274.59;;;9.69;100.00
25430;BME280;13360;48.152;-1.788;2023-04-04T00:24:38;102257.16;;;9.64;100.00
25430;BME280;13360;48.152;-1.788;2023-04-04T00:27:04;102260.41;;;9.61;100.00
25430;BME280;13360;48.152;-1.788;2023-04-04T00:29:29;102255.63;;;9.56;100.00
25430;BME280;13360;48.152;-1.788;2023-04-04T00:31:54;102255.91;;;9.55;100.00
25430;BME280;13360;48.152;-1.788;2023-04-04T00:34:20;102260.84;;;9.53;100.00
25430;BME280;13360;48.152;-1.788;2023-04-04T00:36:45;102262.75;;;9.52;100.00
25430;BME280;13360;48.152;-1.788;2023-04-04T00:39:11;102267.44;;;9.52;100.00
25430;BME280;13360;48.152;-1.788;2023-04-04T00:41:37;102273.47;;;9.48;100.00
25430;BME280;13360;48.152;-1.788;2023-04-04T00:44:03;102271.53;;;9.49;100.00
25430;BME280;13360;48.152;-1.788;2023-04-04T00:46:30;102275.38;;;9.48;100.00
25430;BME280;13360;48.152;-1.788;2023-04-04T00:48:55;102285.84;;;9.46;100.00
25430;BME280;13360;48.152;-1.788;2023-04-04T00:51:21;102269.81;;;9.43;100.00
25430;BME280;13360;48.152;-1.788;2023-04-04T00:53:47;102270.88;;;9.42;100.00
25430;BME280;13360;48.152;-1.788;2023-04-04T00:56:15;102264.78;;;9.40;100.00
25430;BME280;13360;48.152;-1.788;2023-04-04T00:58:41;102261.47;;;9.38;100.00
25430;BME280;13360;48.152;-1.788;2023-04-04T01:01:07;102269.94;;;9.36;100.00
25430;BME280;13360;48.152;-1.788;2023-04-04T01:03:35;102272.13;;;9.34;100.00
25430;BME280;13360;48.152;-1.788;2023-04-04T01:06:01;102265.44;;;9.30;100.00
25430;BME280;13360;48.152;-1.788;2023-04-04T01:08:28;102267.31;;;9.25;100.00
25430;BME280;13360;48.152;-1.788;2023-04-04T01:10:54;102267.31;;;9.25;100.00
25430;BME280;13360;48.152;-1.788;2023-04-04T01:13:20;102271.97;;;9.24;100.00
25430;BME280;13360;48.152;-1.788;2023-04-04T01:15:47;102263.97;;;9.23;100.00
25430;BME280;13360;48.152;-1.788;2023-04-04T01:18:14;102272.22;;;9.23;100.00
25430;BME280;13360;48.152;-1.788;2023-04-04T01:26:20;102271.31;;;9.17;100.00
25430;BME280;13360;48.152;-1.788;2023-04-04T01:28:46;102274.91;;;9.18;100.00
25430;BME280;13360;48.152;-1.788;2023-04-04T01:31:13;102274.91;;;9.18;100.00
25430;BME280;13360;48.152;-1.788;2023-04-04T01:33:51;102267.47;;;9.18;100.00
25430;BME280;13360;48.152;-1.788;2023-04-04T01:36:26;102257.44;;;9.12;100.00
25430;BME280;13360;48.152;-1.788;2023-04-04T01:39:13;102256.91;;;9.15;100.00
25430;BME280;13360;48.152;-1.788;2023-04-04T01:41:41;102251.06;;;9.11;100.00
25430;BME280;13360;48.152;-1.788;2023-04-04T01:44:08;102262.94;;;9.12;100.00
25430;BME280;13360;48.152;-1.788;2023-04-04T01:46:35;102268.78;;;9.15;100.00
25430;BME280;13360;48.152;-1.788;2023-04-04T01:49:01;102265.19;;;9.15;100.00
25430;BME280;13360;48.152;-1.788;2023-04-04T01:51:26;102262.69;;;9.13;100.00
25430;BME280;13360;48.152;-1.788;2023-04-04T01:53:53;102252.16;;;9.10;100.00
25430;BME280;13360;48.152;-1.788;2023-04-04T01:56:18;102263.78;;;9.12;100.00
25430;BME280;13360;48.152;-1.788;2023-04-04T01:58:44;102259.09;;;9.13;100.00
25430;BME280;13360;48.152;-1.788;2023-04-04T02:01:09;102264.84;;;9.11;100.00
25430;BME280;13360;48.152;-1.788;2023-04-04T02:03:34;102274.72;;;9.07;100.00
25430;BME280;13360;48.152;-1.788;2023-04-04T02:06:00;102273.56;;;9.03;100.00
25430;BME280;13360;48.152;-1.788;2023-04-04T02:08:25;102284.00;;;9.01;100.00
25430;BME280;13360;48.152;-1.788;2023-04-04T02:10:50;102281.25;;;9.01;100.00
25430;BME280;13360;48.152;-1.788;2023-04-04T02:13:16;102271.81;;;8.97;100.00
25430;BME280;13360;48.152;-1.788;2023-04-04T02:15:42;102264.25;;;8.93;100.00
25430;BME280;13360;48.152;-1.788;2023-04-04T02:18:07;102267.84;;;8.93;100.00
25430;BME280;13360;48.152;-1.788;2023-04-04T02:20:33;102266.19;;;8.92;100.00
25430;BME280;13360;48.152;-1.788;2023-04-04T02:22:58;102271.09;;;8.90;100.00
25430;BME280;13360;48.152;-1.788;2023-04-04T02:25:24;102272.19;;;8.89;100.00
25430;BME280;13360;48.152;-1.788;2023-04-04T02:27:49;102260.84;;;8.85;100.00
25430;BME280;13360;48.152;-1.788;2023-04-04T02:30:15;102251.66;;;8.80;100.00
25430;BME280;13360;48.152;-1.788;2023-04-04T02:32:41;102255.25;;;8.80;100.00
25430;BME280;13360;48.152;-1.788;2023-04-04T02:35:07;102240.28;;;8.76;100.00
25430;BME280;13360;48.152;-1.788;2023-04-04T02:37:32;102238.63;;;8.75;100.00
25430;BME280;13360;48.152;-1.788;2023-04-04T02:39:58;102246.06;;;8.75;100.00
25430;BME280;13360;48.152;-1.788;2023-04-04T02:42:23;102247.09;;;8.74;100.00
25430;BME280;13360;48.152;-1.788;2023-04-04T02:44:48;102244.28;;;8.69;100.00
25430;BME280;13360;48.152;-1.788;2023-04-04T02:47:14;102238.19;;;8.67;100.00
25430;BME280;13360;48.152;-1.788;2023-04-04T02:49:39;102246.19;;;8.68;100.00
25430;BME280;13360;48.152;-1.788;2023-04-04T02:52:04;102251.94;;;8.67;100.00
25430;BME280;13360;48.152;-1.788;2023-04-04T02:54:30;102253.03;;;8.66;100.00
25430;BME280;13360;48.152;-1.788;2023-04-04T02:56:55;102248.28;;;8.61;100.00
25430;BME280;13360;48.152;-1.788;2023-04-04T02:59:21;102256.78;;;8.60;100.00
25430;BME280;13360;48.152;-1.788;2023-04-04T03:01:46;102256.19;;;8.58;100.00
25430;BME280;13360;48.152;-1.788;2023-04-04T03:04:12;102253.31;;;8.52;100.00
25430;BME280;13360;48.152;-1.788;2023-04-04T03:06:38;102247.97;;;8.46;100.00
25430;BME280;13360;48.152;-1.788;2023-04-04T03:09:05;102247.63;;;8.42;100.00
25430;BME280;13360;48.152;-1.788;2023-04-04T03:11:30;102240.47;;;8.41;100.00
25430;BME280;13360;48.152;-1.788;2023-04-04T03:13:56;102237.38;;;8.38;100.00
25430;BME280;13360;48.152;-1.788;2023-04-04T03:16:21;102227.06;;;8.33;100.00
25430;BME280;13360;48.152;-1.788;2023-04-04T03:18:47;102229.19;;;8.31;100.00
25430;BME280;13360;48.152;-1.788;2023-04-04T03:21:13;102226.44;;;8.31;100.00
25430;BME280;13360;48.152;-1.788;2023-04-04T03:23:38;102225.59;;;8.31;100.00
25430;BME280;13360;48.152;-1.788;2023-04-04T03:26:03;102219.50;;;8.29;100.00
25430;BME280;13360;48.152;-1.788;2023-04-04T03:28:29;102211.75;;;8.25;100.00
25430;BME280;13360;48.152;-1.788;2023-04-04T03:30:54;102189.63;;;8.20;100.00
25430;BME280;13360;48.152;-1.788;2023-04-04T03:33:20;102186.31;;;8.18;100.00
25430;BME280;13360;48.152;-1.788;2023-04-04T03:35:46;102183.78;;;8.17;100.00
25430;BME280;13360;48.152;-1.788;2023-04-04T03:38:12;102178.78;;;8.14;100.00
25430;BME280;13360;48.152;-1.788;2023-04-04T03:40:37;102188.13;;;8.13;100.00
25430;BME280;13360;48.152;-1.788;2023-04-04T03:43:05;102181.41;;;8.09;100.00
25430;BME280;13360;48.152;-1.788;2023-04-04T03:45:33;102181.31;;;8.04;100.00
25430;BME280;13360;48.152;-1.788;2023-04-04T03:48:00;102183.72;;;8.00;100.00
25430;BME280;13360;48.152;-1.788;2023-04-04T03:50:26;102187.22;;;7.95;100.00
25430;BME280;13360;48.152;-1.788;2023-04-04T03:52:51;102195.47;;;7.95;100.00
25430;BME280;13360;48.152;-1.788;2023-04-04T03:55:16;102187.72;;;7.92;100.00
25430;BME280;13360;48.152;-1.788;2023-04-04T03:57:42;102180.75;;;7.90;100.00
25430;BME280;13360;48.152;-1.788;2023-04-04T04:00:07;102190.81;;;7.84;100.00
25430;BME280;13360;48.152;-1.788;2023-04-04T04:02:33;102187.50;;;7.82;100.00
25430;BME280;13360;48.152;-1.788;2023-04-04T04:04:58;102196.81;;;7.81;100.00
25430;BME280;13360;48.152;-1.788;2023-04-04T04:07:23;102193.22;;;7.81;100.00
25430;BME280;13360;48.152;-1.788;2023-04-04T04:09:49;102193.47;;;7.79;100.00
25430;BME280;13360;48.152;-1.788;2023-04-04T04:12:15;102194.56;;;7.78;100.00
25430;BME280;13360;48.152;-1.788;2023-04-04T04:14:40;102204.47;;;7.79;100.00
25430;BME280;13360;48.152;-1.788;2023-04-04T04:17:06;102207.47;;;7.78;100.00
25430;BME280;13360;48.152;-1.788;2023-04-04T04:19:32;102198.63;;;7.76;100.00
25430;BME280;13360;48.152;-1.788;2023-04-04T04:21:57;102203.31;;;7.75;100.00
25430;BME280;13360;48.152;-1.788;2023-04-04T04:24:22;102202.22;;;7.76;100.00
25430;BME280;13360;48.152;-1.788;2023-04-04T04:26:48;102200.31;;;7.77;100.00
25430;BME280;13360;48.152;-1.788;2023-04-04T04:29:13;102192.31;;;7.75;100.00
25430;BME280;13360;48.152;-1.788;2023-04-04T04:31:38;102190.63;;;7.74;100.00
25430;BME280;13360;48.152;-1.788;2023-04-04T04:34:05;102187.16;;;7.67;100.00
25430;BME280;13360;48.152;-1.788;2023-04-04T04:36:32;102195.06;;;7.63;100.00
25430;BME280;13360;48.152;-1.788;2023-04-04T04:38:58;102197.47;;;7.60;100.00
25430;BME280;13360;48.152;-1.788;2023-04-04T04:41:23;102199.88;;;7.56;100.00
25430;BME280;13360;48.152;-1.788;2023-04-04T04:43:48;102193.19;;;7.52;100.00
25430;BME280;13360;48.152;-1.788;2023-04-04T04:46:14;102198.69;;;7.52;100.00
25430;BME280;13360;48.152;-1.788;2023-04-04T04:48:39;102189.94;;;7.44;100.00
25430;BME280;13360;48.152;-1.788;2023-04-04T04:51:05;102195.22;;;7.33;100.00
25430;BME280;13360;48.152;-1.788;2023-04-04T04:53:30;102198.81;;;7.34;100.00
25430;BME280;13360;48.152;-1.788;2023-04-04T04:55:56;102198.81;;;7.34;100.00
25430;BME280;13360;48.152;-1.788;2023-04-04T04:58:22;102195.47;;;7.32;100.00
25430;BME280;13360;48.152;-1.788;2023-04-04T05:00:48;102202.88;;;7.31;100.00
25430;BME280;13360;48.152;-1.788;2023-04-04T05:03:14;102207.16;;;7.27;100.00
25430;BME280;13360;48.152;-1.788;2023-04-04T05:05:39;102208.00;;;7.28;100.00
25430;BME280;13360;48.152;-1.788;2023-04-04T05:08:06;102206.22;;;7.22;100.00
25430;BME280;13360;48.152;-1.788;2023-04-04T05:13:53;102230.09;;;7.21;100.00
25430;BME280;13360;48.152;-1.788;2023-04-04T05:16:18;102224.84;;;7.20;100.00
25430;BME280;13360;48.152;-1.788;2023-04-04T05:18:44;102215.06;;;7.12;100.00
25430;BME280;13360;48.152;-1.788;2023-04-04T05:21:10;102214.47;;;7.10;100.00
25430;BME280;13360;48.152;-1.788;2023-04-04T05:23:35;102222.09;;;7.08;100.00
25430;BME280;13360;48.152;-1.788;2023-04-04T05:26:00;102217.66;;;7.07;100.00
25430;BME280;13360;48.152;-1.788;2023-04-04T05:28:27;102227.81;;;7.07;100.00
25430;BME280;13360;48.152;-1.788;2023-04-04T05:30:52;102230.34;;;7.08;100.00
25430;BME280;13360;48.152;-1.788;2023-04-04T05:33:18;102235.84;;;7.08;100.00
25430;BME280;13360;48.152;-1.788;2023-04-04T05:35:43;102233.53;;;7.05;100.00
25430;BME280;13360;48.152;-1.788;2023-04-04T05:38:08;102225.78;;;7.02;100.00
25430;BME280;13360;48.152;-1.788;2023-04-04T05:40:34;102248.03;;;7.12;100.00
25430;BME280;13360;48.152;-1.788;2023-04-04T05:42:59;102250.53;;;7.14;100.00
25430;BME280;13360;48.152;-1.788;2023-04-04T05:45:28;102257.22;;;7.18;100.00
25430;BME280;13360;48.152;-1.788;2023-04-04T05:47:54;102273.59;;;7.24;100.00
25430;BME280;13360;48.152;-1.788;2023-04-04T05:50:19;102273.75;;;7.29;100.00
25430;BME280;13360;48.152;-1.788;2023-04-04T05:52:47;102264.66;;;7.29;100.00
25430;BME280;13360;48.152;-1.788;2023-04-04T05:55:13;102264.66;;;7.29;100.00
25430;BME280;13360;48.152;-1.788;2023-04-04T05:57:46;102242.06;;;7.27;100.00
25430;BME280;13360;48.152;-1.788;2023-04-04T06:00:12;102242.78;;;7.22;100.00
25430;BME280;13360;48.152;-1.788;2023-04-04T06:02:38;102252.09;;;7.21;100.00
25430;BME280;13360;48.152;-1.788;2023-04-04T06:05:03;102251.50;;;7.19;100.00
25430;BME280;13360;48.152;-1.788;2023-04-04T06:07:28;102263.56;;;7.18;100.00
25430;BME280;13360;48.152;-1.788;2023-04-04T06:09:54;102276.22;;;7.19;100.00
25430;BME280;13360;48.152;-1.788;2023-04-04T06:12:19;102269.66;;;7.20;100.00
25430;BME280;13360;48.152;-1.788;2023-04-04T06:14:45;102274.31;;;7.20;100.00
25430;BME280;13360;48.152;-1.788;2023-04-04T06:17:10;102283.88;;;7.17;100.00
25430;BME280;13360;48.152;-1.788;2023-04-04T06:19:36;102291.03;;;7.18;100.00
25430;BME280;13360;48.152;-1.788;2023-04-04T06:22:01;102301.19;;;7.18;100.00
25430;BME280;13360;48.152;-1.788;2023-04-04T06:24:26;102306.94;;;7.16;100.00
25430;BME280;13360;48.152;-1.788;2023-04-04T06:26:52;102317.94;;;7.16;100.00
25430;BME280;13360;48.152;-1.788;2023-04-04T06:29:17;102339.91;;;7.16;100.00
25430;BME280;13360;48.152;-1.788;2023-04-04T06:31:43;102350.66;;;7.18;100.00
25430;BME280;13360;48.152;-1.788;2023-04-04T06:34:08;102357.47;;;7.15;100.00
25430;BME280;13360;48.152;-1.788;2023-04-04T06:36:34;102363.94;;;7.21;100.00
25430;BME280;13360;48.152;-1.788;2023-04-04T06:38:59;102369.78;;;7.24;100.00
25430;BME280;13360;48.152;-1.788;2023-04-04T06:41:24;102368.72;;;7.25;100.00
25430;BME280;13360;48.152;-1.788;2023-04-04T06:43:50;102375.66;;;7.28;100.00
25430;BME280;13360;48.152;-1.788;2023-04-04T06:46:16;102388.47;;;7.34;100.00
25430;BME280;13360;48.152;-1.788;2023-04-04T06:48:41;102388.84;;;7.38;100.00
25430;BME280;13360;48.152;-1.788;2023-04-04T06:51:07;102395.53;;;7.42;100.00
25430;BME280;13360;48.152;-1.788;2023-04-04T06:53:33;102395.44;;;7.48;100.00
25430;BME280;13360;48.152;-1.788;2023-04-04T06:55:59;102404.06;;;7.52;100.00
25430;BME280;13360;48.152;-1.788;2023-04-04T06:58:24;102403.81;;;7.53;100.00
25430;BME280;13360;48.152;-1.788;2023-04-04T07:00:49;102410.28;;;7.59;100.00
25430;BME280;13360;48.152;-1.788;2023-04-04T07:03:15;102412.56;;;7.62;100.00
25430;BME280;13360;48.152;-1.788;2023-04-04T07:05:40;102409.69;;;7.69;100.00
25430;BME280;13360;48.152;-1.788;2023-04-04T07:08:07;102409.94;;;7.67;100.00
25430;BME280;13360;48.152;-1.788;2023-04-04T07:10:32;102423.09;;;7.65;100.00
25430;BME280;13360;48.152;-1.788;2023-04-04T07:12:57;102417.72;;;7.70;100.00
25430;BME280;13360;48.152;-1.788;2023-04-04T07:15:23;102419.28;;;7.78;100.00
25430;BME280;13360;48.152;-1.788;2023-04-04T07:17:48;102417.50;;;7.83;100.00
25430;BME280;13360;48.152;-1.788;2023-04-04T07:20:13;102422.28;;;7.88;100.00
25430;BME280;13360;48.152;-1.788;2023-04-04T07:22:39;102429.00;;;7.92;100.00
25430;BME280;13360;48.152;-1.788;2023-04-04T07:25:06;102429.38;;;7.95;100.00
25430;BME280;13360;48.152;-1.788;2023-04-04T07:27:32;102428.41;;;8.02;100.00
25430;BME280;13360;48.152;-1.788;2023-04-04T07:29:57;102434.63;;;8.09;100.00
25430;BME280;13360;48.152;-1.788;2023-04-04T07:32:22;102414.03;;;8.00;100.00
25430;BME280;13360;48.152;-1.788;2023-04-04T07:34:49;102401.50;;;7.92;100.00
25430;BME280;13360;48.152;-1.788;2023-04-04T07:37:14;102415.72;;;8.01;100.00
25430;BME280;13360;48.152;-1.788;2023-04-04T07:39:40;102412.59;;;8.09;100.00
25430;BME280;13360;48.152;-1.788;2023-04-04T07:42:06;102424.59;;;8.14;100.00
25430;BME280;13360;48.152;-1.788;2023-04-04T07:44:31;102434.25;;;8.29;100.00
25430;BME280;13360;48.152;-1.788;2023-04-04T07:46:56;102429.28;;;8.37;100.00
25430;BME280;13360;48.152;-1.788;2023-04-04T07:49:22;102402.56;;;8.38;100.00
25430;BME280;13360;48.152;-1.788;2023-04-04T07:51:47;102383.16;;;8.44;100.00
25430;BME280;13360;48.152;-1.788;2023-04-04T07:54:13;102420.00;;;8.67;100.00
25430;BME280;13360;48.152;-1.788;2023-04-04T07:56:38;102431.81;;;8.79;100.00
25430;BME280;13360;48.152;-1.788;2023-04-04T07:59:04;102426.03;;;8.92;100.00
25430;BME280;13360;48.152;-1.788;2023-04-04T08:01:29;102400.72;;;8.95;100.00
25430;BME280;13360;48.152;-1.788;2023-04-04T08:03:55;102377.50;;;8.91;100.00
25430;BME280;13360;48.152;-1.788;2023-04-04T08:06:21;102356.50;;;9.02;100.00
25430;BME280;13360;48.152;-1.788;2023-04-04T08:08:46;102345.31;;;9.08;100.00
25430;BME280;13360;48.152;-1.788;2023-04-04T08:11:12;102354.34;;;9.21;100.00
25430;BME280;13360;48.152;-1.788;2023-04-04T08:13:37;102347.00;;;9.26;100.00
25430;BME280;13360;48.152;-1.788;2023-04-04T08:16:03;102341.25;;;9.44;100.00
25430;BME280;13360;48.152;-1.788;2023-04-04T08:18:29;102348.03;;;9.70;100.00
25430;BME280;13360;48.152;-1.788;2023-04-04T08:20:54;102381.19;;;10.09;100.00
25430;BME280;13360;48.152;-1.788;2023-04-04T08:23:19;102330.50;;;10.20;100.00
25430;BME280;13360;48.152;-1.788;2023-04-04T08:25:46;102329.50;;;10.21;100.00
25430;BME280;13360;48.152;-1.788;2023-04-04T08:28:11;102325.38;;;10.24;100.00
25430;BME280;13360;48.152;-1.788;2023-04-04T08:30:38;102309.63;;;10.24;100.00
25430;BME280;13360;48.152;-1.788;2023-04-04T08:33:03;102304.44;;;10.50;100.00
25430;BME280;13360;48.152;-1.788;2023-04-04T08:35:29;102298.72;;;10.83;100.00
25430;BME280;13360;48.152;-1.788;2023-04-04T08:37:54;102311.13;;;11.08;100.00
25430;BME280;13360;48.152;-1.788;2023-04-04T08:40:21;102301.09;;;11.02;100.00
25430;BME280;13360;48.152;-1.788;2023-04-04T08:42:48;102291.66;;;10.97;100.00
25430;BME280;13360;48.152;-1.788;2023-04-04T08:45:17;102287.53;;;11.00;100.00
25430;BME280;13360;48.152;-1.788;2023-04-04T08:47:43;102293.81;;;11.22;100.00
25430;BME280;13360;48.152;-1.788;2023-04-04T08:50:10;102296.75;;;11.43;100.00
25430;BME280;13360;48.152;-1.788;2023-04-04T08:52:37;102301.50;;;11.84;100.00
25430;BME280;13360;48.152;-1.788;2023-04-04T08:55:04;102303.78;;;11.93;100.00
25430;BME280;13360;48.152;-1.788;2023-04-04T08:57:30;102296.47;;;12.24;100.00
25430;BME280;13360;48.152;-1.788;2023-04-04T08:59:55;102294.31;;;12.31;100.00
25430;BME280;13360;48.152;-1.788;2023-04-04T09:04:53;102297.22;;;12.81;100.00
25430;BME280;13360;48.152;-1.788;2023-04-04T09:07:20;102319.25;;;13.39;100.00
25430;BME280;13360;48.152;-1.788;2023-04-04T09:09:47;102297.56;;;13.66;100.00
25430;BME280;13360;48.152;-1.788;2023-04-04T09:12:14;102311.88;;;14.14;100.00
25430;BME280;13360;48.152;-1.788;2023-04-04T09:14:42;102310.44;;;14.37;100.00
25430;BME280;13360;48.152;-1.788;2023-04-04T09:17:07;102307.31;;;14.59;100.00
25430;BME280;13360;48.152;-1.788;2023-04-04T09:19:35;102312.69;;;14.89;100.00
25430;BME280;13360;48.152;-1.788;2023-04-04T09:22:00;102334.44;;;15.27;100.00
25430;BME280;13360;48.152;-1.788;2023-04-04T09:24:37;102305.00;;;15.49;100.00
25430;BME280;13360;48.152;-1.788;2023-04-04T09:27:03;102313.72;;;15.38;100.00
25430;BME280;13360;48.152;-1.788;2023-04-04T09:29:28;102343.00;;;15.69;100.00
25430;BME280;13360;48.152;-1.788;2023-04-04T09:31:54;102297.84;;;15.72;100.00
25430;BME280;13360;48.152;-1.788;2023-04-04T09:34:19;102318.59;;;15.56;100.00
25430;BME280;13360;48.152;-1.788;2023-04-04T09:36:45;102324.16;;;15.56;100.00
25430;BME280;13360;48.152;-1.788;2023-04-04T09:39:12;102329.56;;;15.76;100.00
25430;BME280;13360;48.152;-1.788;2023-04-04T09:41:40;102357.75;;;16.28;100.00
25430;BME280;13360;48.152;-1.788;2023-04-04T09:44:06;102321.31;;;16.86;100.00
25430;BME280;13360;48.152;-1.788;2023-04-04T09:46:35;102325.00;;;17.19;100.00
25430;BME280;13360;48.152;-1.788;2023-04-04T09:49:01;102315.06;;;17.45;100.00
25430;BME280;13360;48.152;-1.788;2023-04-04T09:51:36;102305.00;;;17.63;100.00
25430;BME280;13360;48.152;-1.788;2023-04-04T09:54:09;102295.69;;;17.54;100.00
25430;BME280;13360;48.152;-1.788;2023-04-04T09:56:35;102310.13;;;17.75;100.00
25430;BME280;13360;48.152;-1.788;2023-04-04T09:59:05;102320.63;;;18.10;100.00
25430;BME280;13360;48.152;-1.788;2023-04-04T10:01:32;102370.78;;;18.48;100.00
25430;BME280;13360;48.152;-1.788;2023-04-04T10:03:58;102328.09;;;18.56;100.00
25430;BME280;13360;48.152;-1.788;2023-04-04T10:06:23;102330.91;;;18.56;100.00
25430;BME280;13360;48.152;-1.788;2023-04-04T10:08:49;102313.28;;;18.42;95.54
25430;BME280;13360;48.152;-1.788;2023-04-04T10:11:28;102329.25;;;18.55;98.45
25430;BME280;13360;48.152;-1.788;2023-04-04T10:13:55;102331.41;;;18.58;99.47
25430;BME280;13360;48.152;-1.788;2023-04-04T10:16:23;102327.59;;;18.26;93.93
25430;BME280;13360;48.152;-1.788;2023-04-04T10:18:48;102308.72;;;18.05;93.92
25430;BME280;13360;48.152;-1.788;2023-04-04T10:21:16;102317.06;;;17.26;94.70
25430;BME280;13360;48.152;-1.788;2023-04-04T10:23:44;102307.78;;;16.31;97.80
25430;BME280;13360;48.152;-1.788;2023-04-04T10:26:10;102320.38;;;15.76;100.00
25430;BME280;13360;48.152;-1.788;2023-04-04T10:28:36;102350.88;;;15.62;100.00
25430;BME280;13360;48.152;-1.788;2023-04-04T10:36:02;102328.28;;;15.30;100.00
25430;BME280;13360;48.152;-1.788;2023-04-04T10:38:42;102302.19;;;14.81;100.00
25430;BME280;13360;48.152;-1.788;2023-04-04T10:41:10;102317.34;;;14.50;100.00
25430;BME280;13360;48.152;-1.788;2023-04-04T10:43:39;102344.00;;;14.61;100.00
25430;BME280;13360;48.152;-1.788;2023-04-04T10:46:11;102324.84;;;14.59;100.00
25430;BME280;13360;48.152;-1.788;2023-04-04T10:48:38;102280.94;;;14.36;100.00
25430;BME280;13360;48.152;-1.788;2023-04-04T10:51:05;102324.06;;;14.39;100.00
25430;BME280;13360;48.152;-1.788;2023-04-04T10:53:32;102365.72;;;14.54;100.00
25430;BME280;13360;48.152;-1.788;2023-04-04T10:55:59;102335.94;;;14.54;100.00
25430;BME280;13360;48.152;-1.788;2023-04-04T10:58:27;102380.16;;;14.61;100.00
25430;BME280;13360;48.152;-1.788;2023-04-04T11:00:56;102357.06;;;14.66;100.00
25430;BME280;13360;48.152;-1.788;2023-04-04T11:03:21;102292.59;;;14.53;100.00
25430;BME280;13360;48.152;-1.788;2023-04-04T11:05:48;102271.59;;;14.22;100.00
25430;BME280;13360;48.152;-1.788;2023-04-04T11:08:26;102281.03;;;14.16;100.00
25430;BME280;13360;48.152;-1.788;2023-04-04T11:10:52;102326.59;;;14.25;100.00
25430;BME280;13360;48.152;-1.788;2023-04-04T11:13:25;102283.53;;;14.22;100.00
25430;BME280;13360;48.152;-1.788;2023-04-04T11:16:10;102271.03;;;14.20;100.00
25430;BME280;13360;48.152;-1.788;2023-04-04T11:21:07;102290.50;;;14.20;100.00
25430;BME280;13360;48.152;-1.788;2023-04-04T11:26:37;102267.16;;;14.21;100.00
25430;BME280;13360;48.152;-1.788;2023-04-04T11:29:04;102308.81;;;14.26;100.00
25430;BME280;13360;48.152;-1.788;2023-04-04T11:31:34;102264.69;;;14.09;100.00
25430;BME280;13360;48.152;-1.788;2023-04-04T11:34:10;102253.63;;;13.99;100.00
25430;BME280;13360;48.152;-1.788;2023-04-04T11:39:12;102304.38;;;14.20;100.00
25430;BME280;13360;48.152;-1.788;2023-04-04T11:44:16;102250.28;;;13.97;100.00
25430;BME280;13360;48.152;-1.788;2023-04-04T11:46:42;102241.16;;;13.81;100.00
25430;BME280;13360;48.152;-1.788;2023-04-04T11:49:09;102274.78;;;13.80;100.00
25430;BME280;13360;48.152;-1.788;2023-04-04T11:51:35;102300.28;;;13.97;100.00
25430;BME280;13360;48.152;-1.788;2023-04-04T11:54:01;102300.28;;;14.02;100.00
25430;BME280;13360;48.152;-1.788;2023-04-04T11:56:27;102279.16;;;14.01;100.00
25430;BME280;13360;48.152;-1.788;2023-04-04T11:58:52;102277.19;;;14.07;100.00
25430;BME280;13360;48.152;-1.788;2023-04-04T12:01:18;102279.97;;;14.07;100.00
25430;BME280;13360;48.152;-1.788;2023-04-04T12:03:44;102263.28;;;14.12;100.00
25430;BME280;13360;48.152;-1.788;2023-04-04T12:06:11;102228.84;;;14.08;100.00
25430;BME280;13360;48.152;-1.788;2023-04-04T12:08:38;102264.94;;;14.18;100.00
25430;BME280;13360;48.152;-1.788;2023-04-04T12:11:06;102231.06;;;14.11;100.00
25430;BME280;13360;48.152;-1.788;2023-04-04T12:13:40;102211.38;;;14.02;100.00
25430;BME280;13360;48.152;-1.788;2023-04-04T12:16:07;102259.13;;;14.09;100.00
25430;BME280;13360;48.152;-1.788;2023-04-04T12:18:32;102231.66;;;14.02;100.00
25430;BME280;13360;48.152;-1.788;2023-04-04T12:20:57;102274.09;;;14.18;100.00
25430;BME280;13360;48.152;-1.788;2023-04-04T12:23:23;102222.97;;;14.19;100.00
25430;BME280;13360;48.152;-1.788;2023-04-04T12:25:49;102223.25;;;14.18;100.00
25430;BME280;13360;48.152;-1.788;2023-04-04T12:28:18;102238.25;;;14.22;100.00
25430;BME280;13360;48.152;-1.788;2023-04-04T12:30:44;102209.88;;;14.25;100.00
25430;BME280;13360;48.152;-1.788;2023-04-04T12:33:10;102255.44;;;14.29;100.00
25430;BME280;13360;48.152;-1.788;2023-04-04T12:35:36;102236.03;;;14.19;100.00
25430;BME280;13360;48.152;-1.788;2023-04-04T12:38:02;102232.97;;;14.15;100.00
25430;BME280;13360;48.152;-1.788;2023-04-04T12:40:34;102238.78;;;14.24;100.00
25430;BME280;13360;48.152;-1.788;2023-04-04T12:43:07;102291.00;;;14.37;100.00
25430;BME280;13360;48.152;-1.788;2023-04-04T12:45:37;102280.41;;;14.39;100.00
25430;BME280;13360;48.152;-1.788;2023-04-04T12:48:14;102214.31;;;14.26;100.00
25430;BME280;13360;48.152;-1.788;2023-04-04T12:50:53;102255.41;;;14.34;100.00
25430;BME280;13360;48.152;-1.788;2023-04-04T12:53:21;102214.84;;;14.28;100.00
25430;BME280;13360;48.152;-1.788;2023-04-04T12:55:48;102238.47;;;14.30;100.00
25430;BME280;13360;48.152;-1.788;2023-04-04T12:58:15;102227.88;;;14.32;100.00
25430;BME280;13360;48.152;-1.788;2023-04-04T13:00:41;102204.09;;;14.16;100.00